sensor_id;sensor_type;location;lat;lon;timestamp;pressure;altitude;pressure_sealevel;temperature;humidity
79366;BME280;68833;53.160;17.920;2024-01-15T00:00:20;98318.71;;;0.87;85.31
79366;BME280;68833;53.160;17.920;2024-01-15T00:03:08;98317.00;;;0.84;85.15
79366;BME280;68833;53.160;17.920;2024-01-15T00:05:38;98311.48;;;0.82;85.22
79366;BME280;68833;53.160;17.920;2024-01-15T00:08:08;98308.55;;;0.82;85.46
79366;BME280;68833;53.160;17.920;2024-01-15T00:10:37;98298.87;;;0.82;85.56
79366;BME280;68833;53.160;17.920;2024-01-15T00:13:07;98307.86;;;0.82;85.40
79366;BME280;68833;53.160;17.920;2024-01-15T00:15:35;98296.13;;;0.79;85.52
79366;BME280;68833;53.160;17.920;2024-01-15T00:18:03;98292.52;;;0.78;85.67
79366;BME280;68833;53.160;17.920;2024-01-15T00:20:32;98287.67;;;0.77;85.43
79366;BME280;68833;53.160;17.920;2024-01-15T00:23:02;98281.27;;;0.77;85.21
79366;BME280;68833;53.160;17.920;2024-01-15T00:25:41;98278.36;;;0.77;85.48
79366;BME280;68833;53.160;17.920;2024-01-15T00:28:10;98274.04;;;0.76;85.45
79366;BME280;68833;53.160;17.920;2024-01-15T00:30:39;98265.23;;;0.75;85.58
79366;BME280;68833;53.160;17.920;2024-01-15T00:33:07;98254.20;;;0.73;85.73
79366;BME280;68833;53.160;17.920;2024-01-15T00:35:35;98255.23;;;0.74;85.77
79366;BME280;68833;53.160;17.920;2024-01-15T00:38:02;98252.48;;;0.74;85.63
79366;BME280;68833;53.160;17.920;2024-01-15T00:40:30;98251.25;;;0.73;85.61
79366;BME280;68833;53.160;17.920;2024-01-15T00:42:58;98243.14;;;0.74;85.64
79366;BME280;68833;53.160;17.920;2024-01-15T00:45:27;98235.88;;;0.74;85.74
79366;BME280;68833;53.160;17.920;2024-01-15T00:47:56;98235.54;;;0.73;85.95
79366;BME280;68833;53.160;17.920;2024-01-15T00:50:24;98235.53;;;0.74;85.70
79366;BME280;68833;53.160;17.920;2024-01-15T00:52:54;98225.85;;;0.73;85.73
79366;BME280;68833;53.160;17.920;2024-01-15T00:55:21;98222.41;;;0.74;85.92
79366;BME280;68833;53.160;17.920;2024-01-15T00:57:48;98214.64;;;0.73;85.95
79366;BME280;68833;53.160;17.920;2024-01-15T01:00:15;98211.88;;;0.72;85.89
79366;BME280;68833;53.160;17.920;2024-01-15T01:02:42;98209.81;;;0.72;85.68
79366;BME280;68833;53.160;17.920;2024-01-15T01:05:13;98209.13;;;0.71;85.85
79366;BME280;68833;53.160;17.920;2024-01-15T01:07:40;98202.05;;;0.71;85.68
79366;BME280;68833;53.160;17.920;2024-01-15T01:10:08;98198.60;;;0.70;85.86
79366;BME280;68833;53.160;17.920;2024-01-15T01:12:37;98188.77;;;0.69;85.88
79366;BME280;68833;53.160;17.920;2024-01-15T01:15:05;98182.91;;;0.68;86.12
79366;BME280;68833;53.160;17.920;2024-01-15T01:17:33;98176.53;;;0.66;86.29
79366;BME280;68833;53.160;17.920;2024-01-15T01:20:10;98168.93;;;0.66;86.13
79366;BME280;68833;53.160;17.920;2024-01-15T01:22:39;98167.38;;;0.66;86.24
79366;BME280;68833;53.160;17.920;2024-01-15T01:25:07;98170.28;;;0.69;86.20
79366;BME280;68833;53.160;17.920;2024-01-15T01:27:36;98164.23;;;0.70;86.20
79366;BME280;68833;53.160;17.920;2024-01-15T01:30:07;98165.61;;;0.69;86.03
79366;BME280;68833;53.160;17.920;2024-01-15T01:32:35;98157.85;;;0.68;86.13
79366;BME280;68833;53.160;17.920;2024-01-15T01:35:02;98158.58;;;0.66;86.19
79366;BME280;68833;53.160;17.920;2024-01-15T01:37:30;98156.66;;;0.66;86.22
79366;BME280;68833;53.160;17.920;2024-01-15T01:40:06;98149.40;;;0.67;86.30
79366;BME280;68833;53.160;17.920;2024-01-15T01:42:34;98148.50;;;0.69;86.09
79366;BME280;68833;53.160;17.920;2024-01-15T01:45:02;98146.60;;;0.70;86.20
79366;BME280;68833;53.160;17.920;2024-01-15T01:47:31;98143.34;;;0.69;86.24
79366;BME280;68833;53.160;17.920;2024-01-15T01:49:59;98134.02;;;0.69;86.32
79366;BME280;68833;53.160;17.920;2024-01-15T01:52:28;98133.85;;;0.68;86.23
79366;BME280;68833;53.160;17.920;2024-01-15T01:54:58;98128.14;;;0.67;86.07
79366;BME280;68833;53.160;17.920;2024-01-15T01:57:26;98125.19;;;0.69;86.01
79366;BME280;68833;53.160;17.920;2024-01-15T01:59:56;98121.89;;;0.70;86.28
79366;BME280;68833;53.160;17.920;2024-01-15T02:11:15;98095.85;;;0.67;86.23
79366;BME280;68833;53.160;17.920;2024-01-15T02:13:42;98089.98;;;0.66;86.40
79366;BME280;68833;53.160;17.920;2024-01-15T02:16:10;98090.36;;;0.64;86.13
79366;BME280;68833;53.160;17.920;2024-01-15T02:18:45;98089.64;;;0.66;86.27
79366;BME280;68833;53.160;17.920;2024-01-15T02:21:15;98086.34;;;0.67;86.11
79366;BME280;68833;53.160;17.920;2024-01-15T02:23:42;98082.74;;;0.66;86.14
79366;BME280;68833;53.160;17.920;2024-01-15T02:26:10;98084.13;;;0.66;86.14
79366;BME280;68833;53.160;17.920;2024-01-15T02:28:37;98080.48;;;0.65;86.06
79366;BME280;68833;53.160;17.920;2024-01-15T02:31:05;98074.11;;;0.65;86.33
79366;BME280;68833;53.160;17.920;2024-01-15T02:33:32;98067.88;;;0.65;86.36
79366;BME280;68833;53.160;17.920;2024-01-15T02:35:59;98069.09;;;0.65;86.05
79366;BME280;68833;53.160;17.920;2024-01-15T02:38:26;98066.50;;;0.66;86.07
79366;BME280;68833;53.160;17.920;2024-01-15T02:40:54;98058.55;;;0.66;86.04
79366;BME280;68833;53.160;17.920;2024-01-15T02:43:26;98057.84;;;0.68;86.16
79366;BME280;68833;53.160;17.920;2024-01-15T02:45:54;98051.28;;;0.67;86.06
79366;BME280;68833;53.160;17.920;2024-01-15T02:48:21;98047.31;;;0.66;85.76
79366;BME280;68833;53.160;17.920;2024-01-15T02:50:48;98038.67;;;0.67;85.92
79366;BME280;68833;53.160;17.920;2024-01-15T02:53:21;98033.64;;;0.69;85.70
79366;BME280;68833;53.160;17.920;2024-01-15T02:55:53;98025.18;;;0.68;86.05
79366;BME280;68833;53.160;17.920;2024-01-15T02:58:23;98023.14;;;0.66;85.92
79366;BME280;68833;53.160;17.920;2024-01-15T03:00:55;98019.88;;;0.64;85.95
79366;BME280;68833;53.160;17.920;2024-01-15T03:03:22;98017.30;;;0.62;85.97
79366;BME280;68833;53.160;17.920;2024-01-15T03:05:53;98019.38;;;0.63;86.12
79366;BME280;68833;53.160;17.920;2024-01-15T03:08:23;98013.83;;;0.64;86.08
79366;BME280;68833;53.160;17.920;2024-01-15T03:10:51;98011.58;;;0.65;86.00
79366;BME280;68833;53.160;17.920;2024-01-15T03:13:30;98007.42;;;0.65;85.94
79366;BME280;68833;53.160;17.920;2024-01-15T03:16:05;98007.80;;;0.63;86.17
79366;BME280;68833;53.160;17.920;2024-01-15T03:18:33;98006.63;;;0.61;86.10
79366;BME280;68833;53.160;17.920;2024-01-15T03:21:00;97995.27;;;0.58;86.13
79366;BME280;68833;53.160;17.920;2024-01-15T03:23:30;97990.95;;;0.58;86.30
79366;BME280;68833;53.160;17.920;2024-01-15T03:25:58;97985.07;;;0.58;86.30
79366;BME280;68833;53.160;17.920;2024-01-15T03:28:26;97980.07;;;0.57;86.22
79366;BME280;68833;53.160;17.920;2024-01-15T03:30:53;97978.34;;;0.57;86.31
79366;BME280;68833;53.160;17.920;2024-01-15T03:33:24;97973.36;;;0.55;86.21
79366;BME280;68833;53.160;17.920;2024-01-15T03:35:55;97973.73;;;0.54;86.33
79366;BME280;68833;53.160;17.920;2024-01-15T03:38:23;97971.52;;;0.51;86.47
79366;BME280;68833;53.160;17.920;2024-01-15T03:40:54;97964.81;;;0.48;86.52
79366;BME280;68833;53.160;17.920;2024-01-15T03:43:24;97963.11;;;0.46;86.32
79366;BME280;68833;53.160;17.920;2024-01-15T03:45:51;97959.81;;;0.47;86.54
79366;BME280;68833;53.160;17.920;2024-01-15T03:48:18;97958.77;;;0.46;86.64
79366;BME280;68833;53.160;17.920;2024-01-15T03:50:46;97954.98;;;0.46;86.73
79366;BME280;68833;53.160;17.920;2024-01-15T03:53:13;97950.86;;;0.46;86.68
79366;BME280;68833;53.160;17.920;2024-01-15T03:55:41;97950.01;;;0.44;86.75
79366;BME280;68833;53.160;17.920;2024-01-15T03:58:08;97942.61;;;0.42;86.64
79366;BME280;68833;53.160;17.920;2024-01-15T04:00:35;97945.58;;;0.40;86.70
79366;BME280;68833;53.160;17.920;2024-01-15T04:03:02;97939.36;;;0.40;86.63
79366;BME280;68833;53.160;17.920;2024-01-15T04:05:33;97943.15;;;0.40;86.82
79366;BME280;68833;53.160;17.920;2024-01-15T04:08:00;97934.02;;;0.40;86.88
79366;BME280;68833;53.160;17.920;2024-01-15T04:10:28;97937.14;;;0.38;86.87
79366;BME280;68833;53.160;17.920;2024-01-15T04:12:58;97935.27;;;0.36;86.81
79366;BME280;68833;53.160;17.920;2024-01-15T04:15:26;97933.25;;;0.32;86.86
79366;BME280;68833;53.160;17.920;2024-01-15T04:17:53;97933.43;;;0.31;86.99
79366;BME280;68833;53.160;17.920;2024-01-15T04:20:20;97937.23;;;0.31;87.00
79366;BME280;68833;53.160;17.920;2024-01-15T04:22:50;97932.77;;;0.30;87.04
79366;BME280;68833;53.160;17.920;2024-01-15T04:25:16;97937.26;;;0.29;86.98
79366;BME280;68833;53.160;17.920;2024-01-15T04:27:44;97937.79;;;0.28;86.90
79366;BME280;68833;53.160;17.920;2024-01-15T04:30:11;97929.86;;;0.27;86.84
79366;BME280;68833;53.160;17.920;2024-01-15T04:32:38;97923.29;;;0.27;86.62
79366;BME280;68833;53.160;17.920;2024-01-15T04:35:05;97921.20;;;0.28;86.65
79366;BME280;68833;53.160;17.920;2024-01-15T04:37:33;97916.21;;;0.27;86.34
79366;BME280;68833;53.160;17.920;2024-01-15T04:40:00;97913.61;;;0.28;86.45
79366;BME280;68833;53.160;17.920;2024-01-15T04:42:27;97911.39;;;0.26;86.42
79366;BME280;68833;53.160;17.920;2024-01-15T04:44:54;97906.91;;;0.26;86.36
79366;BME280;68833;53.160;17.920;2024-01-15T04:47:21;97904.66;;;0.27;86.45
79366;BME280;68833;53.160;17.920;2024-01-15T04:49:50;97903.45;;;0.27;86.26
79366;BME280;68833;53.160;17.920;2024-01-15T04:52:17;97905.48;;;0.29;86.28
79366;BME280;68833;53.160;17.920;2024-01-15T04:54:45;97907.39;;;0.30;86.35
79366;BME280;68833;53.160;17.920;2024-01-15T04:57:12;97910.80;;;0.31;86.49
79366;BME280;68833;53.160;17.920;2024-01-15T04:59:39;97911.69;;;0.30;86.43
79366;BME280;68833;53.160;17.920;2024-01-15T05:02:07;97913.59;;;0.30;86.37
79366;BME280;68833;53.160;17.920;2024-01-15T05:04:34;97912.02;;;0.30;86.21
79366;BME280;68833;53.160;17.920;2024-01-15T05:07:01;97911.19;;;0.30;86.30
79366;BME280;68833;53.160;17.920;2024-01-15T05:09:28;97912.21;;;0.30;86.11
79366;BME280;68833;53.160;17.920;2024-01-15T05:11:55;97915.67;;;0.29;85.95
79366;BME280;68833;53.160;17.920;2024-01-15T05:14:22;97912.40;;;0.29;85.95
79366;BME280;68833;53.160;17.920;2024-01-15T05:16:49;97919.83;;;0.28;85.92
79366;BME280;68833;53.160;17.920;2024-01-15T05:19:18;97919.52;;;0.25;85.98
79366;BME280;68833;53.160;17.920;2024-01-15T05:21:46;97921.27;;;0.24;85.70
79366;BME280;68833;53.160;17.920;2024-01-15T05:24:13;97918.86;;;0.23;85.76
79366;BME280;68833;53.160;17.920;2024-01-15T05:26:40;97920.77;;;0.23;85.70
79366;BME280;68833;53.160;17.920;2024-01-15T05:29:07;97921.11;;;0.23;85.79
79366;BME280;68833;53.160;17.920;2024-01-15T05:31:35;97914.53;;;0.23;85.60
79366;BME280;68833;53.160;17.920;2024-01-15T05:34:02;97908.00;;;0.21;85.69
79366;BME280;68833;53.160;17.920;2024-01-15T05:36:29;97903.20;;;0.19;85.42
79366;BME280;68833;53.160;17.920;2024-01-15T05:38:56;97902.35;;;0.18;85.60
79366;BME280;68833;53.160;17.920;2024-01-15T05:41:26;97904.93;;;0.19;85.64
79366;BME280;68833;53.160;17.920;2024-01-15T05:43:53;97898.38;;;0.20;85.48
79366;BME280;68833;53.160;17.920;2024-01-15T05:46:23;97902.52;;;0.19;85.72
79366;BME280;68833;53.160;17.920;2024-01-15T05:48:50;97901.66;;;0.18;85.38
79366;BME280;68833;53.160;17.920;2024-01-15T05:51:17;97899.09;;;0.16;85.68
79366;BME280;68833;53.160;17.920;2024-01-15T05:53:44;97901.69;;;0.15;85.31
79366;BME280;68833;53.160;17.920;2024-01-15T05:56:11;97893.78;;;0.13;85.74
79366;BME280;68833;53.160;17.920;2024-01-15T05:58:40;97891.88;;;0.13;85.72
79366;BME280;68833;53.160;17.920;2024-01-15T06:01:07;97888.23;;;0.14;85.40
79366;BME280;68833;53.160;17.920;2024-01-15T06:03:34;97886.67;;;0.15;85.35
79366;BME280;68833;53.160;17.920;2024-01-15T06:06:02;97884.76;;;0.16;85.61
79366;BME280;68833;53.160;17.920;2024-01-15T06:08:29;97883.02;;;0.17;85.45
79366;BME280;68833;53.160;17.920;2024-01-15T06:10:56;97878.70;;;0.17;85.39
79366;BME280;68833;53.160;17.920;2024-01-15T06:13:26;97869.59;;;0.16;85.51
79366;BME280;68833;53.160;17.920;2024-01-15T06:15:54;97872.02;;;0.15;85.50
79366;BME280;68833;53.160;17.920;2024-01-15T06:18:21;97874.61;;;0.14;85.69
79366;BME280;68833;53.160;17.920;2024-01-15T06:20:48;97875.13;;;0.14;85.41
79366;BME280;68833;53.160;17.920;2024-01-15T06:23:15;97870.11;;;0.14;85.67
79366;BME280;68833;53.160;17.920;2024-01-15T06:25:42;97869.09;;;0.14;85.32
79366;BME280;68833;53.160;17.920;2024-01-15T06:28:10;97870.48;;;0.13;85.66
79366;BME280;68833;53.160;17.920;2024-01-15T06:30:37;97868.95;;;0.11;85.61
79366;BME280;68833;53.160;17.920;2024-01-15T06:33:04;97866.88;;;0.11;85.71
79366;BME280;68833;53.160;17.920;2024-01-15T06:35:31;97869.11;;;0.12;85.83
79366;BME280;68833;53.160;17.920;2024-01-15T06:37:58;97869.30;;;0.11;85.73
79366;BME280;68833;53.160;17.920;2024-01-15T06:40:25;97868.78;;;0.11;85.43
79366;BME280;68833;53.160;17.920;2024-01-15T06:42:53;97862.21;;;0.12;85.14
79366;BME280;68833;53.160;17.920;2024-01-15T06:45:20;97857.17;;;0.14;85.38
79366;BME280;68833;53.160;17.920;2024-01-15T06:47:47;97856.48;;;0.15;85.36
79366;BME280;68833;53.160;17.920;2024-01-15T06:50:14;97853.55;;;0.15;85.23
79366;BME280;68833;53.160;17.920;2024-01-15T06:52:41;97856.31;;;0.14;85.10
79366;BME280;68833;53.160;17.920;2024-01-15T06:55:08;97849.63;;;0.11;85.20
79366;BME280;68833;53.160;17.920;2024-01-15T06:57:35;97854.77;;;0.14;85.34
79366;BME280;68833;53.160;17.920;2024-01-15T07:00:02;97856.13;;;0.15;85.16
79366;BME280;68833;53.160;17.920;2024-01-15T07:02:34;97848.53;;;0.16;85.04
79366;BME280;68833;53.160;17.920;2024-01-15T07:05:01;97850.95;;;0.16;85.19
79366;BME280;68833;53.160;17.920;2024-01-15T07:07:28;97853.52;;;0.16;85.38
79366;BME280;68833;53.160;17.920;2024-01-15T07:09:58;97856.98;;;0.16;85.24
79366;BME280;68833;53.160;17.920;2024-01-15T07:12:25;97851.48;;;0.15;85.27
79366;BME280;68833;53.160;17.920;2024-01-15T07:14:52;97852.33;;;0.15;85.07
79366;BME280;68833;53.160;17.920;2024-01-15T07:17:20;97854.04;;;0.17;85.46
79366;BME280;68833;53.160;17.920;2024-01-15T07:19:47;97849.02;;;0.17;85.62
79366;BME280;68833;53.160;17.920;2024-01-15T07:22:14;97853.51;;;0.18;85.67
79366;BME280;68833;53.160;17.920;2024-01-15T07:24:43;97855.61;;;0.15;85.84
79366;BME280;68833;53.160;17.920;2024-01-15T07:27:10;97859.59;;;0.14;85.67
79366;BME280;68833;53.160;17.920;2024-01-15T07:29:37;97861.84;;;0.13;85.95
79366;BME280;68833;53.160;17.920;2024-01-15T07:32:05;97862.06;;;0.11;85.96
79366;BME280;68833;53.160;17.920;2024-01-15T07:34:32;97865.50;;;0.12;86.04
79366;BME280;68833;53.160;17.920;2024-01-15T07:36:59;97869.62;;;0.13;85.68
79366;BME280;68833;53.160;17.920;2024-01-15T07:39:26;97861.15;;;0.13;86.02
79366;BME280;68833;53.160;17.920;2024-01-15T07:41:58;97860.46;;;0.13;85.82
79366;BME280;68833;53.160;17.920;2024-01-15T07:44:25;97863.56;;;0.14;85.90
79366;BME280;68833;53.160;17.920;2024-01-15T07:46:55;97860.47;;;0.13;85.94
79366;BME280;68833;53.160;17.920;2024-01-15T07:49:25;97856.86;;;0.12;85.92
79366;BME280;68833;53.160;17.920;2024-01-15T07:51:57;97854.45;;;0.11;85.95
79366;BME280;68833;53.160;17.920;2024-01-15T07:54:24;97857.05;;;0.12;85.95
79366;BME280;68833;53.160;17.920;2024-01-15T07:56:59;97860.46;;;0.13;85.68
79366;BME280;68833;53.160;17.920;2024-01-15T07:59:27;97859.08;;;0.14;85.79
79366;BME280;68833;53.160;17.920;2024-01-15T08:01:59;97854.92;;;0.14;85.68
79366;BME280;68833;53.160;17.920;2024-01-15T08:04:29;97849.92;;;0.15;85.43
79366;BME280;68833;53.160;17.920;2024-01-15T08:06:58;97851.80;;;0.16;85.48
79366;BME280;68833;53.160;17.920;2024-01-15T08:09:25;97852.81;;;0.19;85.32
79366;BME280;68833;53.160;17.920;2024-01-15T08:11:55;97844.83;;;0.22;85.16
79366;BME280;68833;53.160;17.920;2024-01-15T08:14:22;97846.55;;;0.22;85.08
79366;BME280;68833;53.160;17.920;2024-01-15T08:16:49;97841.70;;;0.24;85.29
79366;BME280;68833;53.160;17.920;2024-01-15T08:19:17;97846.00;;;0.24;84.91
79366;BME280;68833;53.160;17.920;2024-01-15T08:21:46;97841.52;;;0.24;84.94
79366;BME280;68833;53.160;17.920;2024-01-15T08:24:14;97845.85;;;0.23;84.99
79366;BME280;68833;53.160;17.920;2024-01-15T08:26:41;97842.39;;;0.24;84.98
79366;BME280;68833;53.160;17.920;2024-01-15T08:29:11;97844.60;;;0.26;85.03
79366;BME280;68833;53.160;17.920;2024-01-15T08:31:38;97847.36;;;0.26;85.14
79366;BME280;68833;53.160;17.920;2024-01-15T08:34:08;97849.24;;;0.27;84.90
79366;BME280;68833;53.160;17.920;2024-01-15T08:36:35;97850.11;;;0.26;84.71
79366;BME280;68833;53.160;17.920;2024-01-15T08:39:03;97850.45;;;0.27;84.88
79366;BME280;68833;53.160;17.920;2024-01-15T08:41:32;97845.59;;;0.29;84.73
79366;BME280;68833;53.160;17.920;2024-01-15T08:44:05;97844.85;;;0.33;84.58
79366;BME280;68833;53.160;17.920;2024-01-15T08:46:34;97843.06;;;0.37;84.45
79366;BME280;68833;53.160;17.920;2024-01-15T08:49:02;97841.47;;;0.39;84.20
79366;BME280;68833;53.160;17.920;2024-01-15T08:51:30;97845.77;;;0.42;84.28
79366;BME280;68833;53.160;17.920;2024-01-15T08:53:57;97837.11;;;0.42;84.12
79366;BME280;68833;53.160;17.920;2024-01-15T08:56:24;97841.24;;;0.43;84.08
79366;BME280;68833;53.160;17.920;2024-01-15T08:58:56;97839.89;;;0.42;83.90
79366;BME280;68833;53.160;17.920;2024-01-15T09:01:32;97840.05;;;0.43;84.02
79366;BME280;68833;53.160;17.920;2024-01-15T09:03:59;97833.27;;;0.45;84.33
79366;BME280;68833;53.160;17.920;2024-01-15T09:06:26;97828.42;;;0.46;84.06
79366;BME280;68833;53.160;17.920;2024-01-15T09:08:54;97819.77;;;0.48;84.48
79366;BME280;68833;53.160;17.920;2024-01-15T09:11:21;97825.98;;;0.48;84.41
79366;BME280;68833;53.160;17.920;2024-01-15T09:13:48;97815.09;;;0.49;84.38
79366;BME280;68833;53.160;17.920;2024-01-15T09:16:22;97817.83;;;0.50;84.42
79366;BME280;68833;53.160;17.920;2024-01-15T09:18:52;97816.29;;;0.50;84.42
79366;BME280;68833;53.160;17.920;2024-01-15T09:21:19;97813.34;;;0.50;84.27
79366;BME280;68833;53.160;17.920;2024-01-15T09:23:47;97817.14;;;0.50;84.26
79366;BME280;68833;53.160;17.920;2024-01-15T09:26:16;97812.69;;;0.47;84.38
79366;BME280;68833;53.160;17.920;2024-01-15T09:28:44;97818.75;;;0.47;84.61
79366;BME280;68833;53.160;17.920;2024-01-15T09:31:11;97811.33;;;0.46;84.76
79366;BME280;68833;53.160;17.920;2024-01-15T09:33:38;97813.39;;;0.47;84.64
79366;BME280;68833;53.160;17.920;2024-01-15T09:36:05;97813.55;;;0.47;84.75
79366;BME280;68833;53.160;17.920;2024-01-15T09:38:33;97808.88;;;0.48;84.40
79366;BME280;68833;53.160;17.920;2024-01-15T09:41:03;97815.45;;;0.48;84.30
79366;BME280;68833;53.160;17.920;2024-01-15T09:43:33;97816.30;;;0.48;84.28
79366;BME280;68833;53.160;17.920;2024-01-15T09:46:01;97815.27;;;0.49;84.14
79366;BME280;68833;53.160;17.920;2024-01-15T09:48:28;97819.05;;;0.50;83.93
79366;BME280;68833;53.160;17.920;2024-01-15T09:50:57;97826.79;;;0.52;83.69
79366;BME280;68833;53.160;17.920;2024-01-15T09:53:25;97830.92;;;0.53;83.20
79366;BME280;68833;53.160;17.920;2024-01-15T09:55:53;97830.58;;;0.52;83.60
79366;BME280;68833;53.160;17.920;2024-01-15T09:58:20;97830.34;;;0.45;84.39
79366;BME280;68833;53.160;17.920;2024-01-15T10:00:48;97831.46;;;0.39;84.94
79366;BME280;68833;53.160;17.920;2024-01-15T10:03:17;97844.64;;;0.35;85.11
79366;BME280;68833;53.160;17.920;2024-01-15T10:05:44;97838.11;;;0.32;85.11
79366;BME280;68833;53.160;17.920;2024-01-15T10:08:11;97836.73;;;0.33;85.59
79366;BME280;68833;53.160;17.920;2024-01-15T10:10:41;97832.91;;;0.35;85.60
79366;BME280;68833;53.160;17.920;2024-01-15T10:13:08;97831.67;;;0.37;85.51
79366;BME280;68833;53.160;17.920;2024-01-15T10:15:35;97827.85;;;0.39;85.47
79366;BME280;68833;53.160;17.920;2024-01-15T10:18:05;97826.29;;;0.39;85.29
79366;BME280;68833;53.160;17.920;2024-01-15T10:20:32;97829.85;;;0.43;85.10
79366;BME280;68833;53.160;17.920;2024-01-15T10:23:00;97826.16;;;0.48;85.14
79366;BME280;68833;53.160;17.920;2024-01-15T10:25:27;97823.50;;;0.52;84.97
79366;BME280;68833;53.160;17.920;2024-01-15T10:28:01;97824.66;;;0.56;84.74
79366;BME280;68833;53.160;17.920;2024-01-15T10:30:30;97821.88;;;0.58;84.65
79366;BME280;68833;53.160;17.920;2024-01-15T10:33:01;97819.27;;;0.57;84.13
79366;BME280;68833;53.160;17.920;2024-01-15T10:35:32;97807.20;;;0.57;84.05
79366;BME280;68833;53.160;17.920;2024-01-15T10:38:00;97809.42;;;0.58;83.82
79366;BME280;68833;53.160;17.920;2024-01-15T10:40:28;97810.63;;;0.58;83.80
79366;BME280;68833;53.160;17.920;2024-01-15T10:42:55;97810.27;;;0.59;83.89
79366;BME280;68833;53.160;17.920;2024-01-15T10:45:26;97804.23;;;0.58;83.91
79366;BME280;68833;53.160;17.920;2024-01-15T10:47:54;97807.16;;;0.59;83.76
79366;BME280;68833;53.160;17.920;2024-01-15T10:50:29;97804.17;;;0.62;83.80
79366;BME280;68833;53.160;17.920;2024-01-15T10:52:59;97806.73;;;0.64;83.72
79366;BME280;68833;53.160;17.920;2024-01-15T10:55:27;97804.45;;;0.67;83.68
79366;BME280;68833;53.160;17.920;2024-01-15T10:57:54;97806.69;;;0.68;83.46
79366;BME280;68833;53.160;17.920;2024-01-15T11:04:15;97806.83;;;0.70;83.39
79366;BME280;68833;53.160;17.920;2024-01-15T11:06:45;97813.11;;;0.65;83.60
79366;BME280;68833;53.160;17.920;2024-01-15T11:09:13;97813.88;;;0.61;84.15
79366;BME280;68833;53.160;17.920;2024-01-15T11:11:45;97814.77;;;0.58;84.60
79366;BME280;68833;53.160;17.920;2024-01-15T11:17:03;97813.46;;;0.42;84.68
79366;BME280;68833;53.160;17.920;2024-01-15T11:19:43;97816.98;;;0.37;85.05
79366;BME280;68833;53.160;17.920;2024-01-15T11:25:13;97816.23;;;0.30;85.57
79366;BME280;68833;53.160;17.920;2024-01-15T11:27:46;97814.54;;;0.28;85.58
79366;BME280;68833;53.160;17.920;2024-01-15T11:30:20;97813.36;;;0.24;85.37
79366;BME280;68833;53.160;17.920;2024-01-15T11:32:51;97810.12;;;0.23;85.79
79366;BME280;68833;53.160;17.920;2024-01-15T11:35:18;97807.52;;;0.24;85.82
79366;BME280;68833;53.160;17.920;2024-01-15T11:40:35;97810.59;;;0.26;85.76
79366;BME280;68833;53.160;17.920;2024-01-15T11:43:05;97807.44;;;0.29;85.69
79366;BME280;68833;53.160;17.920;2024-01-15T11:45:33;97806.23;;;0.29;85.42
79366;BME280;68833;53.160;17.920;2024-01-15T11:48:16;97797.04;;;0.32;85.70
79366;BME280;68833;53.160;17.920;2024-01-15T11:50:49;97806.67;;;0.34;85.02
79366;BME280;68833;53.160;17.920;2024-01-15T11:53:36;97813.90;;;0.36;84.86
79366;BME280;68833;53.160;17.920;2024-01-15T11:56:14;97814.23;;;0.38;84.32
79366;BME280;68833;53.160;17.920;2024-01-15T11:58:41;97818.17;;;0.39;84.06
79366;BME280;68833;53.160;17.920;2024-01-15T12:01:10;97815.59;;;0.38;84.09
79366;BME280;68833;53.160;17.920;2024-01-15T12:03:40;97818.16;;;0.39;83.99
79366;BME280;68833;53.160;17.920;2024-01-15T12:06:09;97821.79;;;0.40;83.79
79366;BME280;68833;53.160;17.920;2024-01-15T12:08:36;97837.83;;;0.41;83.53
79366;BME280;68833;53.160;17.920;2024-01-15T12:11:06;97843.84;;;0.43;83.23
79366;BME280;68833;53.160;17.920;2024-01-15T12:13:42;97836.76;;;0.43;83.28
79366;BME280;68833;53.160;17.920;2024-01-15T12:16:10;97825.79;;;0.38;83.37
79366;BME280;68833;53.160;17.920;2024-01-15T12:18:40;97831.88;;;0.35;83.53
79366;BME280;68833;53.160;17.920;2024-01-15T12:21:09;97829.89;;;0.28;83.43
79366;BME280;68833;53.160;17.920;2024-01-15T12:23:42;97825.98;;;0.24;83.32
79366;BME280;68833;53.160;17.920;2024-01-15T12:26:09;97826.71;;;0.21;83.47
79366;BME280;68833;53.160;17.920;2024-01-15T12:28:37;97825.89;;;0.19;83.06
79366;BME280;68833;53.160;17.920;2024-01-15T12:31:06;97824.88;;;0.17;83.04
79366;BME280;68833;53.160;17.920;2024-01-15T12:33:34;97823.16;;;0.16;83.31
79366;BME280;68833;53.160;17.920;2024-01-15T12:36:01;97825.05;;;0.17;83.11
79366;BME280;68833;53.160;17.920;2024-01-15T12:38:28;97822.80;;;0.17;83.21
79366;BME280;68833;53.160;17.920;2024-01-15T12:40:55;97827.64;;;0.16;83.00
79366;BME280;68833;53.160;17.920;2024-01-15T12:43:22;97831.74;;;0.19;82.78
79366;BME280;68833;53.160;17.920;2024-01-15T12:45:52;97827.39;;;0.21;82.69
79366;BME280;68833;53.160;17.920;2024-01-15T12:48:19;97827.69;;;0.25;82.49
79366;BME280;68833;53.160;17.920;2024-01-15T12:50:54;97827.14;;;0.27;82.44
79366;BME280;68833;53.160;17.920;2024-01-15T12:53:22;97830.23;;;0.29;82.09
79366;BME280;68833;53.160;17.920;2024-01-15T12:55:49;97832.84;;;0.27;81.76
79366;BME280;68833;53.160;17.920;2024-01-15T12:58:19;97833.39;;;0.25;81.13
79366;BME280;68833;53.160;17.920;2024-01-15T13:00:47;97828.23;;;0.24;80.70
79366;BME280;68833;53.160;17.920;2024-01-15T13:03:14;97831.35;;;0.24;80.92
79366;BME280;68833;53.160;17.920;2024-01-15T13:05:41;97838.77;;;0.23;80.66
79366;BME280;68833;53.160;17.920;2024-01-15T13:08:08;97838.96;;;0.21;80.90
79366;BME280;68833;53.160;17.920;2024-01-15T13:10:35;97844.35;;;0.19;80.60
79366;BME280;68833;53.160;17.920;2024-01-15T13:13:03;97843.48;;;0.19;80.79
79366;BME280;68833;53.160;17.920;2024-01-15T13:15:31;97842.27;;;0.19;80.99
79366;BME280;68833;53.160;17.920;2024-01-15T13:17:58;97838.95;;;0.22;81.12
79366;BME280;68833;53.160;17.920;2024-01-15T13:20:28;97849.33;;;0.21;80.88
79366;BME280;68833;53.160;17.920;2024-01-15T13:23:00;97843.85;;;0.17;80.95
79366;BME280;68833;53.160;17.920;2024-01-15T13:25:33;97836.48;;;0.13;81.38
79366;BME280;68833;53.160;17.920;2024-01-15T13:28:02;97835.30;;;0.11;81.48